RJNY  Shizuhama Airport

Add Bookmark

Japan

Status
Operational
Latitude Longitude
34° 48' 46" N 138° 17' 52" E
34.812801 138.298004
Local (DST + 9) UTC (GMT + 9)
Nov 1, 2014 08:31 Oct 31, 2014 23:31
Sunrise-Sunset Local UTC
Begin Civil Twilight 05:39 20:39
Sunrise 06:05 21:05
Sunset 04:54 07:54
End Civil Twilight 05:20 08:20

Current Weather

METAR Observed VFR
RJNY 312237Z 03006KT 9999 FEW015 BKN045 OVC080 18/14 Q1018 Fri, Oct 31, 2014 @ 22:37 UTC
(54 Minutes ago)
Visual Flight Rules
Wind Visibility Clouds Conditions
030° at 6 knots (11 kph) 10 km or more
  • Few at 1,500' AGL
  • Broken at 4,500' AGL
  • Overcast at 8,000' AGL
  • No significant weather
Temperatures Readings Precipitation
Current Temp 18°C (64°F)
Dewpoint 14°C (57°F)
Humidity 78%
Altimeter 30.06"Hg
Sea Level Pressure 1018mb
Field Elevation 32.81'
None Recorded

Additional weather within a 92.6km radius of RJNY

Map ICAO Location
rjns 10.2km W (259°)
RJAT 76.7km N (043°)

24 Hour Weather History

Loading
-

24 Hour Weather Graphs

Loading
-

CheckWX.com is intended as a tool to help pilots better visualize weather data. It is not intended as a substitute for an official weather briefing obtained from a Flight Service Station. CheckWX.com does not meet the FAA requirements for an official pre-flight weather briefing. Therefore, it's important that pilots still call and obtain an official FSS pre-flight weather briefing.